Main page
METAR-TAF:

METAR-TAF

Airports :

Aurillac – Tronquières Airport

Aurillac, France

latitude: 44-53N, longitude: 002-25E, elevation: 639 m

Current weather observation

The report was made 41 minutes ago, at 18:30 UTC
Calm wind
Temperature 0°C
Humidity 93%
Pressure 1015 hPa
Visibility 10 km or more
no clouds below 1500 m and no cumulonimbus

METAR: LFLW 181830Z AUTO 00000KT CAVOK 00/M01 Q1015

Time: 20:11 (19:11 UTC)

Forecast

The report was made 5 hours and 11 minutes ago, at 14:00 UTC
Forecast valid from 18 at 15 UTC to 18 at 24 UTC
Wind 3 kt from variable directions
Visibility 10 km or more
no clouds below 1500 m and no cumulonimbus
Becoming
from 18 at 20 UTC to 18 at 22 UTC
Visibility: 3000 m
Overcast at a height of 500 ft
mist

TAF: LFLW 181400Z 1815/1824 VRB03KT CAVOK BECMG 1820/1822 3000 BR OVC005

Weather observations and forecasts of more than 4000 airports (METAR and TAF reports).

The available stations are represented by yellow and red dots on the map.

Hover mouse over dot to see the name of the station.

Then click to see weather observations and forecasts.

To change the map : click on the green buttons with a black cross to zoom in, on the green button with a dash to zoom out, or on the green arrows for adjacent maps.


METAR-TAF: